Radisson, Canada
Current Conditions -  °F | °C
As of 5:00 PM on Tuesday 25 Nov 2014 (Local Time) from CYGL Reporting Station
Broken Clouds Broken Clouds  
Wind Chill:   Ceiling: 9000
Heat Index: 12°   Visibility: 15mi
Dew Point:   Wind: 5mph
Humidity: 85%   Direction: 270°W
Pressure: 29.67"   Gusts: NA
Location:  53.78°N, 77.62°W
Report Text: CYGL 252200Z 27004KT 15SM FEW020 BKN090 BKN220 M11/M13 A2967 RMK SC1AC5CI1 SLP065
Loading
Personal Weather Stations






























Interactive Weather Map New forecast layout! Learn more

10-Day Weather Forecast

Advertisements
Track Severe Weather on mobile